createdAt,value
2023-01-17T00:00:34.134Z,3.9
2023-01-17T00:06:18.211Z,5.5
2023-01-17T00:12:01.874Z,4.2
2023-01-17T00:17:44.542Z,3.9
2023-01-17T00:23:27.932Z,4.4
2023-01-17T00:29:20.921Z,4.4
2023-01-17T00:35:03.632Z,4.9
2023-01-17T00:40:47.178Z,4.5
2023-01-17T00:46:30.259Z,4.1
2023-01-17T00:52:13.098Z,4.7
2023-01-17T00:57:55.999Z,5.9
2023-01-17T01:03:38.992Z,4.4
2023-01-17T01:09:21.888Z,5.8
2023-01-17T01:15:04.905Z,4.4
2023-01-17T01:20:47.796Z,6.4
2023-01-17T01:26:30.659Z,6.4
2023-01-17T01:32:13.365Z,6.2
2023-01-17T01:37:56.149Z,6.4
2023-01-17T01:43:47.279Z,5.2
2023-01-17T01:49:29.895Z,5.1
2023-01-17T01:55:14.105Z,5.7
2023-01-17T02:00:57.674Z,4.4
2023-01-17T02:06:44.114Z,4.5
2023-01-17T02:12:27.599Z,5
2023-01-17T02:18:14.967Z,4
2023-01-17T02:24:24.434Z,4.3
2023-01-17T02:30:21.226Z,5.6
2023-01-17T02:36:08.507Z,5.1
2023-01-17T02:41:54.421Z,4.6
2023-01-17T02:47:37.557Z,4
2023-01-17T02:53:27.941Z,4.5
2023-01-17T02:59:15.911Z,5.5
2023-01-17T03:05:03.642Z,4.5
2023-01-17T03:10:47.181Z,4.1
2023-01-17T03:16:31.722Z,4.5
2023-01-17T03:22:14.403Z,5.4
2023-01-17T03:27:57.370Z,4.8
2023-01-17T03:33:40.205Z,4.8
2023-01-17T03:39:23.146Z,5.1
2023-01-17T03:45:06.322Z,6.1
2023-01-17T03:50:52.443Z,6.2
2023-01-17T03:56:35.581Z,4.9
2023-01-17T04:02:19.057Z,4.7
2023-01-17T04:08:02.404Z,6
2023-01-17T04:13:45.425Z,5.2
2023-01-17T04:19:28.324Z,5.6
2023-01-17T04:25:11.750Z,4.8
2023-01-17T04:30:54.791Z,4.6
2023-01-17T04:36:37.767Z,4.8
2023-01-17T04:42:20.764Z,4.8
2023-01-17T04:48:09.190Z,4.7
2023-01-17T04:53:51.973Z,5.2
2023-01-17T04:59:34.781Z,4.9
2023-01-17T05:05:17.930Z,4.7
2023-01-17T05:11:00.825Z,4.7
2023-01-17T05:16:43.725Z,6
2023-01-17T05:22:26.533Z,4.6
2023-01-17T05:28:09.174Z,5.7
2023-01-17T05:33:52.147Z,5.4
2023-01-17T05:39:35.047Z,5.3
2023-01-17T05:45:18.585Z,5.3
2023-01-17T05:51:01.363Z,5
2023-01-17T05:56:44.439Z,5.2
2023-01-17T06:02:27.753Z,5.2
2023-01-17T06:08:10.923Z,6.6
2023-01-17T06:13:54.431Z,5.8
2023-01-17T06:19:37.160Z,6.5
2023-01-17T06:25:19.973Z,6.7
2023-01-17T06:31:07.657Z,5.6
2023-01-17T06:36:50.609Z,6
2023-01-17T06:42:33.643Z,7.5
2023-01-17T06:48:16.729Z,7.8
2023-01-17T06:53:59.636Z,7.3
2023-01-17T06:59:42.637Z,8.4
2023-01-17T07:05:25.795Z,8.8
2023-01-17T07:11:09.899Z,7.6
2023-01-17T07:16:52.883Z,9.2
2023-01-17T07:22:36.087Z,8.2
2023-01-17T07:28:18.986Z,7.7
2023-01-17T07:34:01.773Z,9.5
2023-01-17T07:39:44.868Z,8.8
2023-01-17T07:45:27.749Z,9
2023-01-17T07:51:11.146Z,8.5
2023-01-17T07:56:54.202Z,9.3
2023-01-17T08:02:37.305Z,9.7
2023-01-17T08:08:20.618Z,8.6
2023-01-17T08:14:03.350Z,9.3
2023-01-17T08:19:46.525Z,10.4
2023-01-17T08:25:29.458Z,11.3
2023-01-17T08:31:13.462Z,11.8
2023-01-17T08:36:58.298Z,12.6
2023-01-17T08:42:41.200Z,13.6
2023-01-17T08:48:24.337Z,12.3
2023-01-17T08:54:07.399Z,12.9
2023-01-17T08:59:50.555Z,11.7
2023-01-17T09:05:33.481Z,11.9
2023-01-17T09:11:18.268Z,12.4
2023-01-17T09:17:01.566Z,12.9
2023-01-17T09:22:47.014Z,12.7
2023-01-17T09:28:30.288Z,11.8
2023-01-17T09:34:13.294Z,11.9
2023-01-17T09:39:56.281Z,11
2023-01-17T09:45:39.254Z,13
2023-01-17T09:51:24.063Z,10.6
2023-01-17T09:57:11.361Z,11.9
2023-01-17T10:03:02.677Z,10.8
2023-01-17T10:08:55.766Z,11.6
2023-01-17T10:14:50.423Z,10.8
2023-01-17T10:20:39.889Z,11.9
2023-01-17T10:26:24.605Z,9.9
2023-01-17T10:32:08.151Z,10.5
2023-01-17T10:37:51.581Z,10
2023-01-17T10:43:39.015Z,8.2
2023-01-17T10:49:23.602Z,10.6
2023-01-17T10:55:10.893Z,9.4
2023-01-17T11:00:57.858Z,9.2
2023-01-17T11:06:58.234Z,9.8
2023-01-17T11:12:43.624Z,10.5
2023-01-17T11:18:27.464Z,8.5
2023-01-17T11:24:18.815Z,7.8
2023-01-17T11:30:13.520Z,8.7
2023-01-17T11:35:56.625Z,8.3
2023-01-17T11:41:40.784Z,8.9
2023-01-17T11:47:23.563Z,8
2023-01-17T11:53:19.878Z,7.1
2023-01-17T11:59:13.564Z,7.1
2023-01-17T12:05:03.462Z,7.3
2023-01-17T12:10:51.992Z,6.4
2023-01-17T12:16:42.135Z,6.8
2023-01-17T12:22:31.269Z,6.6
2023-01-17T12:28:27.963Z,7.2
2023-01-17T12:34:17.009Z,6.1
2023-01-17T12:40:04.165Z,8
2023-01-17T12:45:48.770Z,5.8
2023-01-17T12:51:33.457Z,5.5
2023-01-17T12:57:18.598Z,5.9
2023-01-17T13:03:04.809Z,5.5
2023-01-17T13:08:50.996Z,6.8
2023-01-17T13:14:34.011Z,5.9
2023-01-17T13:20:22.453Z,6.2
2023-01-17T13:26:06.003Z,5.7
2023-01-17T13:31:54.147Z,5.7
2023-01-17T13:37:44.857Z,4.8
2023-01-17T13:43:29.503Z,5.2
2023-01-17T13:49:28.754Z,4.9
2023-01-17T13:55:16.885Z,5.3
2023-01-17T14:01:00.418Z,4.7
2023-01-17T14:06:45.772Z,4.3
2023-01-17T14:12:33.606Z,5.1
2023-01-17T14:18:27.699Z,3.9
2023-01-17T14:24:17.643Z,5.5
2023-01-17T14:30:04.263Z,5.2
2023-01-17T14:35:52.087Z,4.2
2023-01-17T14:41:35.255Z,3.9
2023-01-17T14:47:19.214Z,4.2
2023-01-17T14:53:25.133Z,4.1
2023-01-17T14:59:15.344Z,4.3
2023-01-17T15:05:00.775Z,4.8
2023-01-17T15:10:47.856Z,4.6
2023-01-17T15:16:32.034Z,6
2023-01-17T15:22:15.166Z,4.4
2023-01-17T15:27:58.239Z,4.7
2023-01-17T15:33:42.719Z,4.8
2023-01-17T15:39:26.847Z,5.4
2023-01-17T15:45:14.510Z,4.9
2023-01-17T15:51:03.794Z,5.8
2023-01-17T15:56:46.721Z,5.7
2023-01-17T16:02:45.994Z,6.1
2023-01-17T16:08:42.097Z,5.9
2023-01-17T16:14:24.965Z,8
2023-01-17T16:20:11.985Z,5.9
2023-01-17T16:25:55.157Z,7.5
2023-01-17T16:31:37.953Z,8.2
2023-01-17T16:37:23.195Z,8.3
2023-01-17T16:43:05.985Z,7.7
2023-01-17T16:48:49.049Z,8.7
2023-01-17T16:54:32.049Z,7.5
2023-01-17T17:00:15.710Z,7.7
2023-01-17T17:06:02.282Z,8.3
2023-01-17T17:11:45.078Z,11.1
2023-01-17T17:17:27.962Z,8.7
2023-01-17T17:23:10.853Z,10.6
2023-01-17T17:28:57.186Z,8.9
2023-01-17T17:34:40.146Z,9.1
2023-01-17T17:40:23.322Z,10.4
2023-01-17T17:46:06.553Z,8.2
2023-01-17T17:51:49.803Z,8.5
2023-01-17T17:57:32.922Z,9.1
2023-01-17T18:03:15.851Z,8.5
2023-01-17T18:08:59.941Z,7.2
2023-01-17T18:14:42.980Z,16.7
2023-01-17T18:20:26.058Z,7.5
2023-01-17T18:26:09.144Z,7.8
2023-01-17T18:31:59.284Z,6.7
2023-01-17T18:37:42.282Z,7.1
2023-01-17T18:43:28.288Z,8.8
2023-01-17T18:49:12.746Z,7.2
2023-01-17T18:54:55.641Z,7.8
2023-01-17T19:00:38.596Z,9.4
2023-01-17T19:06:23.098Z,5.7
2023-01-17T19:12:05.782Z,7.2
2023-01-17T19:17:48.766Z,8.3
2023-01-17T19:23:31.587Z,8
2023-01-17T19:29:14.651Z,7.9
2023-01-17T19:34:57.681Z,9.7
2023-01-17T19:40:40.482Z,7.3
2023-01-17T19:46:23.655Z,7.9
2023-01-17T19:52:06.630Z,8.8
2023-01-17T19:57:49.704Z,9.2
2023-01-17T20:03:32.570Z,9.2
2023-01-17T20:09:16.637Z,9.3
2023-01-17T20:15:00.573Z,8
2023-01-17T20:20:58.492Z,8.6
2023-01-17T20:26:42.036Z,10.8
2023-01-17T20:32:25.205Z,11.4
2023-01-17T20:38:08.419Z,8.4
2023-01-17T20:43:52.589Z,9.5
2023-01-17T20:49:35.423Z,8.9
2023-01-17T20:55:18.727Z,9.7
2023-01-17T21:01:01.922Z,10.4
2023-01-17T21:06:46.302Z,13.3
2023-01-17T21:12:29.392Z,15.8
2023-01-17T21:18:12.354Z,18.4
2023-01-17T21:23:56.178Z,17.3
2023-01-17T21:29:39.108Z,14.5
2023-01-17T21:35:22.334Z,15.4
2023-01-17T21:41:05.356Z,13.8
2023-01-17T21:46:48.663Z,13.9
2023-01-17T21:52:32.393Z,12.6
2023-01-17T21:58:19.039Z,14.9
2023-01-17T22:04:02.667Z,14.7
2023-01-17T22:09:45.542Z,12.1
2023-01-17T22:15:28.402Z,12.1
2023-01-17T22:21:13.614Z,13.1
2023-01-17T22:26:56.821Z,12.6
2023-01-17T22:32:39.966Z,11.4
2023-01-17T22:38:22.812Z,14.7
2023-01-17T22:44:06.106Z,14.9
2023-01-17T22:49:50.346Z,16.2
2023-01-17T22:55:33.103Z,14.5
2023-01-17T23:01:18.239Z,15.6
2023-01-17T23:07:01.142Z,14.1
2023-01-17T23:12:44.007Z,15.2
2023-01-17T23:18:26.832Z,13.6
2023-01-17T23:24:09.909Z,15.2
2023-01-17T23:29:54.050Z,12.1
2023-01-17T23:35:44.458Z,12.9
2023-01-17T23:41:27.424Z,12.6
2023-01-17T23:47:10.406Z,14
2023-01-17T23:52:53.143Z,12.9
2023-01-17T23:58:36.004Z,13.7
